Main page
METAR-TAF:

METAR-TAF

Airports :

Singapore Changi Airport

Singapore, Singapore

latitude: 01-22N, longitude: 103-59E, elevation: 5 m

Current weather observation

The report was made 24 minutes ago, at 23:00 UTC
Wind 3 kt from the West, varying between Southwest and North/Northeast
Temperature 26°C
Humidity 79%
Pressure 1013 hPa
Visibility 10 km or more
Few clouds at a height of 1600 ft
Scattered clouds at a height of 14000 ft
Broken clouds at a height of 30000 ft

METAR: WSSS 212300Z 28003KT 230V030 9999 FEW016 SCT140 BKN300 26/22 Q1013 NOSIG

Time: 07:24 (23:24 UTC)

Forecast

The report was made 6 hours and 24 minutes ago, at 17:00 UTC
Forecast valid from 21 at 18 UTC to 23 at 00 UTC
Wind 10 kt from the North
Visibility 10 km or more
Scattered clouds at a height of 2000 ft

TAF: WSSS 211700Z 2118/2300 01010KT 9999 SCT020

Weather observations and forecasts of more than 4000 airports (METAR and TAF reports).

The available stations are represented by yellow and red dots on the map.

Hover mouse over dot to see the name of the station.

Then click to see weather observations and forecasts.

To change the map : click on the green buttons with a black cross to zoom in, on the green button with a dash to zoom out, or on the green arrows for adjacent maps.


METAR-TAF: